createdAt,value
2022-08-16T00:01:10.384Z,24.00
2022-08-16T00:06:10.300Z,24.00
2022-08-16T00:11:15.952Z,25.30
2022-08-16T00:17:01.704Z,28.50
2022-08-16T00:21:13.245Z,26.20
2022-08-16T00:26:33.247Z,25.00
2022-08-16T00:31:14.608Z,24.00
2022-08-16T00:36:14.137Z,25.60
2022-08-16T00:41:14.878Z,25.60
2022-08-16T00:46:33.856Z,24.00
2022-08-16T00:51:17.390Z,20.00
2022-08-16T00:56:20.087Z,25.10
2022-08-16T01:01:18.497Z,23.70
2022-08-16T01:06:32.606Z,21.00
2022-08-16T01:11:19.968Z,23.30
2022-08-16T01:16:19.873Z,22.70
2022-08-16T01:21:22.118Z,25.90
2022-08-16T01:26:34.097Z,26.60
2022-08-16T01:31:21.960Z,24.90
2022-08-16T01:36:22.575Z,22.10
2022-08-16T01:41:22.352Z,19.50
2022-08-16T01:46:29.468Z,20.80
2022-08-16T01:51:24.515Z,18.80
2022-08-16T01:56:25.326Z,22.10
2022-08-16T02:01:26.222Z,19.90
2022-08-16T02:06:34.667Z,22.00
2022-08-16T02:11:27.666Z,21.60
2022-08-16T02:16:28.416Z,20.20
2022-08-16T02:21:31.456Z,22.90
2022-08-16T02:26:29.032Z,20.80
2022-08-16T02:32:04.044Z,20.50
2022-08-16T02:36:42.412Z,19.10
2022-08-16T02:41:31.825Z,20.80
2022-08-16T02:46:33.716Z,23.80
2022-08-16T02:51:32.088Z,21.50
2022-08-16T02:56:32.894Z,22.40
2022-08-16T03:01:37.069Z,19.90
2022-08-16T03:06:41.409Z,21.60
2022-08-16T03:11:35.906Z,20.30
2022-08-16T03:16:38.275Z,20.80
2022-08-16T03:21:37.480Z,22.40
2022-08-16T03:26:36.948Z,21.80
2022-08-16T03:31:40.438Z,22.00
2022-08-16T03:36:38.815Z,22.90
2022-08-16T03:41:50.446Z,22.20
2022-08-16T03:46:47.236Z,22.00
2022-08-16T03:51:41.528Z,22.10
2022-08-16T03:56:56.964Z,21.40
2022-08-16T04:01:42.735Z,23.40
2022-08-16T04:06:42.469Z,22.20
2022-08-16T04:11:43.154Z,23.90
2022-08-16T04:16:43.840Z,22.80
2022-08-16T04:21:47.203Z,23.30
2022-08-16T04:26:46.279Z,24.70
2022-08-16T04:31:45.334Z,24.10
2022-08-16T04:36:45.749Z,25.40
2022-08-16T04:41:46.603Z,24.20
2022-08-16T04:47:02.796Z,26.40
2022-08-16T04:51:53.789Z,23.50
2022-08-16T04:56:49.334Z,22.00
2022-08-16T05:01:58.668Z,24.10
2022-08-16T05:06:50.598Z,22.20
2022-08-16T05:11:50.289Z,20.20
2022-08-16T05:16:52.178Z,19.20
2022-08-16T05:21:51.989Z,20.10
2022-08-16T05:26:52.637Z,18.60
2022-08-16T05:31:53.769Z,18.10
2022-08-16T05:36:54.025Z,19.90
2022-08-16T05:41:54.703Z,18.30
2022-08-16T05:46:55.813Z,17.60
2022-08-16T05:51:56.187Z,17.30
2022-08-16T05:56:56.900Z,18.00
2022-08-16T06:01:57.692Z,20.90
2022-08-16T06:06:58.373Z,33.30
2022-08-16T06:11:59.323Z,23.00
2022-08-16T06:17:05.303Z,22.10
2022-08-16T06:22:01.534Z,20.90
2022-08-16T06:27:01.289Z,20.70
2022-08-16T06:32:01.968Z,22.10
2022-08-16T06:37:02.415Z,22.60
2022-08-16T06:42:03.091Z,23.30
2022-08-16T06:47:03.755Z,20.30
2022-08-16T06:52:04.424Z,20.70
2022-08-16T06:57:05.154Z,20.90
2022-08-16T07:02:06.755Z,20.30
2022-08-16T07:07:09.761Z,18.60
2022-08-16T07:12:06.719Z,19.20
2022-08-16T07:17:08.138Z,19.60
2022-08-16T07:22:08.468Z,21.30
2022-08-16T07:27:09.425Z,19.00
2022-08-16T07:32:09.227Z,18.90
2022-08-16T07:37:09.922Z,18.60
2022-08-16T07:42:10.600Z,20.60
2022-08-16T07:47:12.163Z,16.50
2022-08-16T07:52:18.901Z,19.60
2022-08-16T08:03:02.679Z,15.10
2022-08-16T08:08:02.903Z,16.00
2022-08-16T08:13:04.440Z,17.50
2022-08-16T08:18:30.373Z,16.90
2022-08-16T08:23:05.523Z,16.70
2022-08-16T08:28:05.198Z,14.00
2022-08-16T08:33:07.062Z,14.50
2022-08-16T08:38:06.663Z,15.50
2022-08-16T08:43:12.119Z,16.70
2022-08-16T08:48:08.907Z,13.40
2022-08-16T08:53:09.476Z,15.90
2022-08-16T08:58:09.240Z,14.90
2022-08-16T09:03:10.243Z,15.10
2022-08-16T09:08:10.974Z,14.60
2022-08-16T09:13:11.737Z,19.10
2022-08-16T09:18:25.094Z,19.60
2022-08-16T09:23:13.935Z,14.60
2022-08-16T09:28:13.671Z,16.00
2022-08-16T09:33:15.184Z,15.20
2022-08-16T09:38:31.221Z,15.00
2022-08-16T09:43:44.799Z,16.00
2022-08-16T09:48:36.915Z,18.90
2022-08-16T09:53:17.423Z,21.90
2022-08-16T09:58:41.565Z,12.70
2022-08-16T10:03:18.862Z,14.00
2022-08-16T10:08:25.787Z,17.70
2022-08-16T10:13:20.063Z,13.30
2022-08-16T10:19:00.427Z,20.10
2022-08-16T10:23:21.253Z,26.20
2022-08-16T10:28:27.983Z,15.20
2022-08-16T10:33:22.542Z,11.50
2022-08-16T10:38:26.941Z,12.70
2022-08-16T10:43:23.713Z,15.70
2022-08-16T10:48:27.969Z,17.60
2022-08-16T10:53:24.919Z,10.70
2022-08-16T10:58:34.539Z,9.70
2022-08-16T11:03:42.565Z,10.20
2022-08-16T11:08:35.237Z,11.30
2022-08-16T11:19:03.288Z,13.40
2022-08-16T11:23:28.180Z,11.60
2022-08-16T11:33:59.021Z,12.80
2022-08-16T11:38:51.748Z,12.20
2022-08-16T11:43:30.508Z,14.00
2022-08-16T11:48:30.378Z,10.60
2022-08-16T11:53:35.777Z,12.40
2022-08-16T11:58:32.625Z,11.60
2022-08-16T12:03:35.171Z,13.40
2022-08-16T12:08:33.191Z,11.90
2022-08-16T12:13:33.860Z,11.30
2022-08-16T12:18:34.558Z,11.80
2022-08-16T12:23:35.191Z,11.40
2022-08-16T12:28:54.265Z,11.90
2022-08-16T12:33:42.768Z,11.50
2022-08-16T12:38:48.005Z,19.20
2022-08-16T12:43:42.298Z,11.70
2022-08-16T12:48:39.013Z,10.60
2022-08-16T12:53:40.085Z,10.00
2022-08-16T12:58:50.251Z,10.50
2022-08-16T13:03:40.914Z,10.40
2022-08-16T13:08:40.547Z,11.50
2022-08-16T13:13:41.228Z,11.00
2022-08-16T13:18:42.077Z,10.60
2022-08-16T13:23:43.176Z,11.10
2022-08-16T13:28:47.726Z,9.80
2022-08-16T13:33:44.041Z,9.80
2022-08-16T13:38:46.959Z,10.40
2022-08-16T13:43:45.452Z,8.30
2022-08-16T13:48:46.988Z,8.80
2022-08-16T13:53:49.601Z,8.60
2022-08-16T13:58:54.500Z,9.90
2022-08-16T14:09:37.598Z,7.80
2022-08-16T14:14:38.251Z,8.90
2022-08-16T14:19:44.798Z,10.30
2022-08-16T14:24:40.471Z,10.30
2022-08-16T14:29:39.998Z,8.30
2022-08-16T14:34:40.695Z,7.50
2022-08-16T14:39:41.396Z,8.10
2022-08-16T14:44:42.072Z,9.30
2022-08-16T14:49:42.864Z,9.20
2022-08-16T14:54:43.388Z,10.20
2022-08-16T14:59:45.343Z,8.30
2022-08-16T15:04:48.440Z,17.60
2022-08-16T15:10:00.451Z,12.90
2022-08-16T15:14:47.009Z,7.90
2022-08-16T15:19:46.653Z,9.40
2022-08-16T15:24:47.623Z,8.80
2022-08-16T15:29:48.299Z,10.20
2022-08-16T15:34:48.995Z,8.10
2022-08-16T15:39:53.698Z,9.90
2022-08-16T15:44:55.669Z,8.40
2022-08-16T15:49:55.571Z,9.00
2022-08-16T15:54:53.613Z,8.00
2022-08-16T15:59:55.743Z,8.40
2022-08-16T16:04:53.851Z,8.00
2022-08-16T16:09:54.134Z,8.10
2022-08-16T16:14:54.868Z,8.40
2022-08-16T16:19:55.520Z,9.80
2022-08-16T16:24:56.445Z,8.60
2022-08-16T16:30:01.685Z,10.20
2022-08-16T16:34:57.664Z,9.70
2022-08-16T16:39:58.397Z,7.80
2022-08-16T16:45:01.233Z,7.90
2022-08-16T16:49:59.650Z,9.80
2022-08-16T16:55:00.355Z,10.00
2022-08-16T17:00:04.750Z,12.90
2022-08-16T17:05:03.121Z,13.20
2022-08-16T17:10:02.525Z,8.50
2022-08-16T17:15:03.467Z,7.90
2022-08-16T17:20:04.075Z,10.60
2022-08-16T17:25:07.485Z,8.00
2022-08-16T17:30:15.022Z,8.30
2022-08-16T17:35:11.535Z,9.10
2022-08-16T17:40:19.115Z,9.70
2022-08-16T17:45:07.949Z,8.80
2022-08-16T17:50:07.798Z,8.20
2022-08-16T17:55:08.475Z,8.50
2022-08-16T18:00:09.383Z,9.00
2022-08-16T18:05:10.325Z,10.90
2022-08-16T18:10:11.004Z,8.70
2022-08-16T18:15:12.008Z,10.80
2022-08-16T18:20:12.653Z,12.40
2022-08-16T18:25:13.375Z,10.60
2022-08-16T18:30:14.039Z,10.40
2022-08-16T18:35:14.832Z,11.10
2022-08-16T18:40:16.621Z,11.30
2022-08-16T18:45:16.293Z,12.60
2022-08-16T18:50:17.005Z,10.90
2022-08-16T18:55:18.026Z,10.60
2022-08-16T19:00:18.253Z,13.70
2022-08-16T19:05:18.913Z,12.40
2022-08-16T19:10:19.746Z,15.00
2022-08-16T19:15:20.511Z,12.40
2022-08-16T19:20:21.259Z,12.20
2022-08-16T19:25:21.965Z,15.50
2022-08-16T19:30:23.595Z,12.40
2022-08-16T19:35:23.322Z,14.50
2022-08-16T19:40:37.163Z,14.40
2022-08-16T19:45:25.753Z,18.00
2022-08-16T19:50:36.137Z,16.20
2022-08-16T19:55:27.124Z,14.80
2022-08-16T20:00:35.598Z,13.00
2022-08-16T20:05:28.563Z,15.50
2022-08-16T20:10:28.407Z,17.80
2022-08-16T20:15:29.157Z,15.30
2022-08-16T20:20:30.096Z,15.60
2022-08-16T20:25:31.079Z,13.30
2022-08-16T20:30:31.654Z,13.90
2022-08-16T20:35:32.498Z,13.40
2022-08-16T20:40:35.139Z,15.20
2022-08-16T20:45:33.761Z,20.60
2022-08-16T20:50:34.564Z,18.40
2022-08-16T20:55:35.324Z,23.00
2022-08-16T21:00:36.040Z,20.70
2022-08-16T21:05:36.759Z,18.40
2022-08-16T21:10:37.274Z,22.80
2022-08-16T21:15:38.014Z,19.00
2022-08-16T21:20:45.803Z,21.10
2022-08-16T21:25:39.602Z,19.90
2022-08-16T21:30:41.099Z,19.60
2022-08-16T21:35:40.939Z,18.30
2022-08-16T21:40:41.857Z,20.70
2022-08-16T21:45:42.748Z,18.90
2022-08-16T21:50:43.575Z,22.00
2022-08-16T21:55:44.407Z,21.20
2022-08-16T22:00:45.052Z,20.20
2022-08-16T22:05:45.925Z,19.60
2022-08-16T22:11:07.061Z,19.90
2022-08-16T22:15:48.233Z,18.90
2022-08-16T22:20:47.946Z,21.90
2022-08-16T22:25:48.811Z,19.00
2022-08-16T22:30:49.663Z,21.60
2022-08-16T22:35:51.391Z,19.60
2022-08-16T22:40:51.360Z,18.60
2022-08-16T22:45:52.192Z,19.20
2022-08-16T22:50:53.040Z,17.30
2022-08-16T22:55:53.748Z,17.80
2022-08-16T23:00:54.481Z,18.10
2022-08-16T23:05:55.233Z,19.60
2022-08-16T23:10:55.966Z,18.20
2022-08-16T23:15:56.827Z,17.10
2022-08-16T23:20:57.860Z,17.50
2022-08-16T23:25:58.199Z,18.20
2022-08-16T23:30:59.018Z,17.20
2022-08-16T23:35:59.679Z,14.80
2022-08-16T23:41:00.485Z,16.40
2022-08-16T23:46:01.150Z,17.10
2022-08-16T23:51:01.857Z,14.90
2022-08-16T23:56:02.738Z,15.80
